Time;durP1;ratioP1;P1;durP2;ratioP2;P2;SDS_P1;SDS_P2;PMS_P1;PMS_P2;Temp;Humidity;BMP_temperature;BMP_pressure;BME280_temperature;BME280_humidity;BME280_pressure;Samples;Min_cycle;Max_cycle;Signal;HPM_P1;HPM_P2
2023/12/03 00:00:49;;;;;;;8.93;4.13;;;4.70;56.20;;;;;;7515451;23;20315;-70
2023/12/03 00:03:50;;;;;;;8.68;3.25;;;4.70;56.20;;;;;;7488744;23;20010;-71
2023/12/03 00:06:52;;;;;;;6.38;3.03;;;4.60;55.60;;;;;;7465130;23;20307;-71
2023/12/03 00:09:53;;;;;;;5.00;2.47;;;4.60;55.90;;;;;;7513934;23;19998;-71
2023/12/03 00:12:54;;;;;;;3.10;1.98;;;4.60;56.00;;;;;;7490001;23;20022;-71
2023/12/03 00:15:55;;;;;;;5.65;2.13;;;4.60;55.90;;;;;;7515421;23;20306;-71
2023/12/03 00:18:56;;;;;;;3.67;1.95;;;4.60;55.90;;;;;;7516154;23;20374;-70
2023/12/03 00:21:56;;;;;;;8.95;3.08;;;4.50;55.70;;;;;;7489773;23;20359;-72
2023/12/03 00:24:57;;;;;;;6.38;2.92;;;4.50;55.90;;;;;;7489365;23;20695;-71
2023/12/03 00:27:59;;;;;;;3.28;1.98;;;4.50;56.00;;;;;;7513964;23;20006;-72
2023/12/03 00:30:59;;;;;;;2.45;1.85;;;4.50;56.20;;;;;;7513683;23;19999;-71
2023/12/03 00:34:02;;;;;;;7.32;3.45;;;4.50;56.40;;;;;;7487956;23;20015;-70
2023/12/03 00:37:03;;;;;;;4.18;2.42;;;4.60;56.40;;;;;;7487665;23;20003;-70
2023/12/03 00:40:06;;;;;;;4.65;3.40;;;4.50;56.30;;;;;;7514759;23;20435;-71
2023/12/03 00:43:07;;;;;;;6.72;3.92;;;4.50;56.20;;;;;;7518021;23;19998;-72
2023/12/03 00:46:08;;;;;;;7.03;3.30;;;4.40;56.00;;;;;;7465903;23;20015;-71
2023/12/03 00:49:10;;;;;;;5.50;2.83;;;4.40;56.20;;;;;;7514599;23;20002;-72
2023/12/03 00:52:11;;;;;;;5.38;2.47;;;4.40;56.30;;;;;;7487585;23;20014;-70
2023/12/03 00:55:12;;;;;;;5.28;2.47;;;4.40;56.30;;;;;;7487989;23;20608;-71
2023/12/03 00:58:13;;;;;;;1.92;1.52;;;4.40;56.30;;;;;;7488081;23;20007;-71
2023/12/03 01:01:13;;;;;;;4.00;2.08;;;4.40;56.20;;;;;;7513269;23;19998;-71
2023/12/03 01:04:14;;;;;;;3.58;2.35;;;4.40;56.30;;;;;;7487752;23;20018;-71
2023/12/03 01:07:15;;;;;;;6.55;2.00;;;4.40;56.30;;;;;;7487946;23;20010;-72
2023/12/03 01:10:16;;;;;;;5.95;3.15;;;4.40;56.50;;;;;;7513423;23;20010;-71
2023/12/03 01:13:17;;;;;;;3.13;2.05;;;4.40;56.50;;;;;;7513953;23;20838;-71
2023/12/03 01:16:18;;;;;;;3.30;2.15;;;4.40;56.60;;;;;;7515011;23;20011;-71
2023/12/03 01:19:19;;;;;;;5.28;2.33;;;4.40;56.60;;;;;;7513959;23;20071;-72
2023/12/03 01:22:20;;;;;;;5.70;3.88;;;4.30;56.60;;;;;;7513295;23;20449;-71
2023/12/03 01:25:22;;;;;;;6.28;2.45;;;4.40;56.70;;;;;;7487160;23;20121;-71
2023/12/03 01:28:23;;;;;;;3.70;2.88;;;4.40;56.80;;;;;;7514010;23;20417;-71
2023/12/03 01:31:24;;;;;;;3.25;2.28;;;4.40;56.80;;;;;;7488631;23;20014;-71
2023/12/03 01:34:25;;;;;;;5.65;2.65;;;4.50;57.00;;;;;;7515579;23;20003;-71
2023/12/03 01:37:25;;;;;;;9.43;3.40;;;4.50;56.90;;;;;;7515900;23;20264;-72
2023/12/03 01:40:28;;;;;;;14.60;3.33;;;4.50;57.00;;;;;;7514766;23;20039;-71
2023/12/03 01:43:28;;;;;;;4.65;2.53;;;4.50;56.80;;;;;;7463946;23;20089;-71
2023/12/03 01:46:29;;;;;;;6.15;3.05;;;4.50;56.80;;;;;;7441021;23;20030;-72
2023/12/03 01:49:31;;;;;;;3.90;2.08;;;4.50;56.90;;;;;;7513770;23;20003;-73
2023/12/03 01:52:34;;;;;;;5.28;2.65;;;4.50;57.00;;;;;;7488085;23;20010;-72
2023/12/03 01:55:35;;;;;;;8.02;3.25;;;4.50;57.10;;;;;;7464693;23;20014;-72
2023/12/03 01:58:36;;;;;;;5.30;2.42;;;4.60;57.00;;;;;;7513794;23;20042;-72
2023/12/03 02:01:37;;;;;;;6.32;2.08;;;4.60;57.00;;;;;;7488078;23;20035;-73
2023/12/03 02:04:38;;;;;;;4.32;2.65;;;4.50;57.00;;;;;;7488189;23;20501;-73
2023/12/03 02:07:38;;;;;;;5.75;3.05;;;4.60;57.10;;;;;;7514402;23;19999;-72
2023/12/03 02:10:39;;;;;;;7.03;4.53;;;4.60;57.10;;;;;;7487202;23;20006;-72
2023/12/03 02:13:41;;;;;;;7.45;4.45;;;4.60;57.00;;;;;;7513156;23;20003;-72
2023/12/03 02:16:47;;;;;;;6.60;2.75;;;4.60;57.00;;;;;;7487942;23;20053;-72
2023/12/03 02:19:48;;;;;;;4.72;2.50;;;4.70;57.10;;;;;;7441210;23;20114;-71
2023/12/03 02:22:59;;;;;;;7.72;3.30;;;4.70;57.10;;;;;;7488104;23;20029;-72
2023/12/03 02:26:02;;;;;;;7.10;3.70;;;4.70;57.00;;;;;;7487490;23;20011;-71
2023/12/03 02:29:03;;;;;;;5.78;2.63;;;4.70;57.10;;;;;;7487317;23;19998;-71
2023/12/03 02:32:04;;;;;;;11.32;4.00;;;4.70;57.00;;;;;;7464068;23;20029;-72
2023/12/03 02:35:05;;;;;;;7.43;3.85;;;4.70;56.90;;;;;;7487918;23;20069;-71
2023/12/03 02:38:06;;;;;;;4.90;2.25;;;4.70;56.90;;;;;;7512643;23;20011;-71
2023/12/03 02:41:07;;;;;;;4.63;2.88;;;4.70;56.90;;;;;;7513124;23;20038;-71
2023/12/03 02:44:08;;;;;;;5.30;3.25;;;4.60;56.90;;;;;;7486863;23;20011;-72
2023/12/03 02:47:10;;;;;;;9.20;3.75;;;4.60;57.00;;;;;;7486986;23;20010;-72
2023/12/03 02:50:11;;;;;;;6.18;3.42;;;4.60;57.20;;;;;;7512981;23;20363;-73
2023/12/03 02:53:14;;;;;;;6.13;3.88;;;4.60;57.20;;;;;;7487267;23;19999;-71
2023/12/03 02:56:16;;;;;;;4.38;3.25;;;4.70;57.40;;;;;;7513737;23;20041;-74
2023/12/03 02:59:17;;;;;;;9.15;3.67;;;4.70;57.40;;;;;;7488538;23;20014;-72
2023/12/03 03:02:17;;;;;;;7.60;4.43;;;4.70;57.40;;;;;;7512389;23;20419;-72
2023/12/03 03:05:18;;;;;;;7.10;2.95;;;4.80;57.40;;;;;;7486150;23;20536;-71
2023/12/03 03:08:19;;;;;;;6.72;3.90;;;4.70;57.30;;;;;;7463671;23;20006;-72
2023/12/03 03:11:20;;;;;;;3.25;2.08;;;4.70;57.20;;;;;;7486659;23;19999;-72
2023/12/03 03:14:21;;;;;;;6.07;2.63;;;4.70;57.20;;;;;;7513137;23;20083;-72
2023/12/03 03:17:22;;;;;;;5.55;3.03;;;4.60;57.40;;;;;;7513794;23;20034;-72
2023/12/03 03:20:23;;;;;;;5.32;3.30;;;4.70;57.50;;;;;;7514667;23;20416;-72
2023/12/03 03:23:24;;;;;;;5.72;2.08;;;4.70;57.50;;;;;;7514015;23;20110;-71
2023/12/03 03:26:26;;;;;;;5.13;3.05;;;4.70;57.60;;;;;;7486869;23;20027;-72
2023/12/03 03:29:27;;;;;;;4.97;2.97;;;4.70;57.30;;;;;;7487428;23;20003;-71
2023/12/03 03:32:28;;;;;;;9.02;3.10;;;4.70;57.30;;;;;;7514242;23;20326;-72
2023/12/03 03:35:29;;;;;;;5.80;2.80;;;4.60;57.30;;;;;;7489237;23;20334;-70
2023/12/03 03:38:30;;;;;;;6.15;3.17;;;4.60;57.30;;;;;;7489364;23;20030;-71
2023/12/03 03:41:33;;;;;;;3.03;2.38;;;4.60;57.50;;;;;;7489658;23;20007;-72
2023/12/03 03:44:34;;;;;;;7.03;3.72;;;4.60;57.50;;;;;;7492018;23;20073;-73
2023/12/03 03:47:36;;;;;;;8.07;3.42;;;4.60;57.60;;;;;;7489964;23;20013;-72
2023/12/03 03:50:36;;;;;;;3.35;2.70;;;4.70;57.50;;;;;;7515546;23;20102;-73
2023/12/03 03:53:37;;;;;;;5.35;3.30;;;4.60;57.30;;;;;;7489547;23;19998;-72
2023/12/03 03:56:39;;;;;;;3.53;2.65;;;4.60;57.40;;;;;;7514256;23;20102;-72
2023/12/03 03:59:43;;;;;;;5.57;3.30;;;4.60;57.50;;;;;;7464415;23;20014;-72
2023/12/03 04:02:44;;;;;;;6.03;2.92;;;4.60;57.70;;;;;;7514132;23;20014;-72
2023/12/03 04:05:44;;;;;;;8.18;3.95;;;4.60;57.70;;;;;;7513797;23;20011;-72
2023/12/03 04:08:46;;;;;;;6.50;2.85;;;4.70;57.70;;;;;;7513603;23;20521;-71
2023/12/03 04:11:47;;;;;;;4.07;3.28;;;4.70;57.70;;;;;;7513675;23;20006;-73
2023/12/03 04:14:47;;;;;;;4.35;2.53;;;4.70;57.50;;;;;;7514347;23;20027;-71
2023/12/03 04:17:49;;;;;;;6.20;3.03;;;4.70;57.40;;;;;;7514397;23;20014;-71
2023/12/03 04:20:52;;;;;;;8.63;4.22;;;4.70;57.50;;;;;;7488663;23;20007;-72
2023/12/03 04:23:52;;;;;;;6.00;3.72;;;4.70;57.70;;;;;;7487974;23;20062;-73
2023/12/03 04:26:53;;;;;;;6.57;4.32;;;4.70;57.70;;;;;;7513599;23;20414;-71
2023/12/03 04:29:55;;;;;;;4.18;2.70;;;4.70;57.60;;;;;;7513245;23;20034;-73
2023/12/03 04:32:56;;;;;;;5.45;3.95;;;4.60;57.60;;;;;;7487064;23;20003;-72
2023/12/03 04:35:57;;;;;;;12.32;3.40;;;4.60;57.70;;;;;;7513841;23;20493;-69
2023/12/03 04:38:58;;;;;;;6.20;2.60;;;4.60;57.80;;;;;;7488486;23;20002;-71
2023/12/03 04:41:59;;;;;;;5.07;3.22;;;4.60;57.80;;;;;;7488692;23;20166;-72
2023/12/03 04:45:00;;;;;;;6.35;3.17;;;4.60;57.90;;;;;;7513720;23;20010;-71
2023/12/03 04:48:01;;;;;;;4.82;2.10;;;4.60;57.90;;;;;;7464835;23;20038;-71
2023/12/03 04:51:03;;;;;;;5.38;3.28;;;4.60;57.90;;;;;;7488704;23;20014;-72
2023/12/03 04:54:04;;;;;;;9.35;2.88;;;4.60;57.60;;;;;;7513724;23;19999;-72
2023/12/03 04:57:05;;;;;;;6.32;3.17;;;4.60;57.10;;;;;;7514698;23;20066;-71
2023/12/03 05:00:07;;;;;;;4.15;2.45;;;4.60;57.00;;;;;;7489238;23;20017;-72
2023/12/03 05:03:08;;;;;;;5.97;3.17;;;4.60;56.60;;;;;;7513566;23;20161;-71
2023/12/03 05:06:09;;;;;;;7.70;2.70;;;4.50;56.50;;;;;;7486384;23;20033;-72
2023/12/03 05:09:09;;;;;;;3.38;2.78;;;4.40;56.60;;;;;;7487939;23;20438;-73
2023/12/03 05:12:11;;;;;;;2.97;1.58;;;4.40;56.70;;;;;;7513739;23;20090;-72
2023/12/03 05:15:12;;;;;;;5.55;3.65;;;4.40;56.90;;;;;;7513982;23;19999;-71
2023/12/03 05:18:14;;;;;;;2.75;1.75;;;4.40;57.00;;;;;;7514295;23;20150;-73
2023/12/03 05:21:14;;;;;;;8.90;2.47;;;4.40;56.90;;;;;;7513906;23;20343;-72
2023/12/03 05:24:17;;;;;;;2.92;1.80;;;4.40;57.00;;;;;;7512512;23;20101;-71
2023/12/03 05:27:17;;;;;;;6.85;3.25;;;4.40;56.90;;;;;;7487994;23;20018;-71
2023/12/03 05:30:18;;;;;;;3.08;1.85;;;4.40;56.90;;;;;;7488933;23;20003;-71
2023/12/03 05:33:19;;;;;;;2.22;1.60;;;4.40;56.90;;;;;;7514601;23;20490;-71
2023/12/03 05:36:22;;;;;;;3.60;1.65;;;4.50;56.90;;;;;;7514286;23;20046;-71
2023/12/03 05:39:23;;;;;;;6.72;2.10;;;4.40;56.80;;;;;;7514753;23;20014;-71
2023/12/03 05:42:24;;;;;;;3.13;2.05;;;4.40;56.60;;;;;;7488872;23;20011;-71
2023/12/03 05:45:25;;;;;;;5.18;2.45;;;4.40;56.70;;;;;;7513503;23;20039;-72
2023/12/03 05:48:26;;;;;;;2.03;1.75;;;4.40;56.60;;;;;;7488573;23;20398;-72
2023/12/03 05:51:27;;;;;;;3.10;1.95;;;4.40;56.40;;;;;;7513411;23;19999;-71
2023/12/03 05:54:28;;;;;;;1.80;1.48;;;4.40;56.50;;;;;;7513644;23;20007;-71
2023/12/03 05:57:29;;;;;;;4.75;2.72;;;4.40;56.40;;;;;;7513081;23;20002;-72
2023/12/03 06:00:30;;;;;;;3.47;2.25;;;4.50;56.40;;;;;;7487697;23;20281;-72
2023/12/03 06:03:31;;;;;;;5.78;2.92;;;4.50;56.50;;;;;;7513678;23;20445;-73
2023/12/03 06:06:35;;;;;;;4.30;2.58;;;4.50;56.40;;;;;;7512948;23;20007;-72
2023/12/03 06:09:36;;;;;;;8.27;2.97;;;4.60;56.50;;;;;;7512174;23;20272;-71
2023/12/03 06:12:40;;;;;;;2.90;2.03;;;4.70;56.50;;;;;;7512521;23;20003;-72
2023/12/03 06:15:44;;;;;;;2.58;2.28;;;4.70;56.60;;;;;;7512957;23;20310;-71
2023/12/03 06:18:45;;;;;;;2.20;2.00;;;4.70;56.30;;;;;;7511707;23;20014;-71
2023/12/03 06:21:46;;;;;;;5.10;2.40;;;4.80;56.30;;;;;;7486451;23;20054;-71
2023/12/03 06:24:47;;;;;;;4.80;2.53;;;4.80;56.20;;;;;;7488458;23;20307;-72
2023/12/03 06:27:48;;;;;;;4.60;2.47;;;4.80;56.30;;;;;;7512602;23;20046;-72
2023/12/03 06:30:49;;;;;;;3.33;2.03;;;4.80;56.30;;;;;;7512996;23;20047;-71
2023/12/03 06:33:50;;;;;;;2.75;1.60;;;4.90;56.30;;;;;;7512457;23;20429;-71
2023/12/03 06:36:51;;;;;;;9.63;2.33;;;4.90;56.20;;;;;;7512569;23;20003;-72
2023/12/03 06:39:52;;;;;;;4.03;2.42;;;4.90;56.20;;;;;;7513333;23;20003;-71
2023/12/03 06:42:53;;;;;;;5.78;2.55;;;4.90;56.10;;;;;;7489414;23;20002;-72
2023/12/03 06:45:54;;;;;;;6.03;3.10;;;4.90;56.00;;;;;;7489144;23;20011;-71
2023/12/03 06:48:55;;;;;;;10.18;2.33;;;4.90;55.80;;;;;;7489866;23;20315;-72
2023/12/03 06:51:56;;;;;;;2.53;1.92;;;4.90;55.50;;;;;;7487255;23;20454;-72
2023/12/03 06:54:56;;;;;;;7.05;2.05;;;4.80;55.70;;;;;;7487649;23;20058;-72
2023/12/03 06:57:59;;;;;;;5.68;2.58;;;4.80;55.70;;;;;;7513348;23;20003;-70
2023/12/03 07:01:00;;;;;;;3.85;2.03;;;4.80;55.60;;;;;;7511990;23;20019;-73
2023/12/03 07:04:02;;;;;;;2.80;2.17;;;4.80;55.80;;;;;;7513245;23;19999;-71
2023/12/03 07:07:04;;;;;;;5.43;3.45;;;4.90;55.90;;;;;;7515409;23;19998;-73
2023/12/03 07:10:06;;;;;;;6.13;2.92;;;4.90;56.10;;;;;;7514572;23;19991;-72
2023/12/03 07:13:07;;;;;;;10.63;3.30;;;4.90;56.20;;;;;;7515102;23;20026;-72
2023/12/03 07:16:09;;;;;;;4.05;2.63;;;4.90;56.20;;;;;;7515623;23;20003;-71
2023/12/03 07:19:10;;;;;;;4.65;3.22;;;4.90;56.40;;;;;;7489346;23;20295;-72
2023/12/03 07:22:11;;;;;;;5.95;3.08;;;4.90;56.60;;;;;;7514597;23;20083;-71
2023/12/03 07:25:12;;;;;;;15.07;4.60;;;4.90;56.30;;;;;;7514716;23;20011;-72
2023/12/03 07:28:13;;;;;;;10.55;3.83;;;4.90;56.90;;;;;;7489240;23;20119;-72
2023/12/03 07:31:15;;;;;;;2.63;1.85;;;4.90;56.90;;;;;;7489939;23;20005;-72
2023/12/03 07:34:16;;;;;;;6.35;2.78;;;4.80;56.90;;;;;;7515202;23;20011;-71
2023/12/03 07:37:17;;;;;;;6.32;2.28;;;4.80;56.90;;;;;;7442328;23;20019;-72
2023/12/03 07:40:18;;;;;;;6.30;2.40;;;4.80;57.00;;;;;;7489214;23;20014;-72
2023/12/03 07:43:19;;;;;;;5.93;3.33;;;4.70;57.00;;;;;;7515108;23;20410;-72
2023/12/03 07:46:21;;;;;;;4.43;2.42;;;4.70;57.00;;;;;;7441419;23;20018;-71
2023/12/03 07:49:22;;;;;;;13.63;3.03;;;4.70;57.00;;;;;;7514988;23;20003;-72
2023/12/03 07:52:24;;;;;;;4.07;2.78;;;4.70;57.00;;;;;;7488970;23;20003;-72
2023/12/03 07:55:25;;;;;;;4.05;2.25;;;4.80;56.90;;;;;;7514294;23;20096;-71
2023/12/03 07:58:27;;;;;;;1.60;1.35;;;4.80;56.80;;;;;;7514983;23;20433;-70
2023/12/03 08:01:28;;;;;;;3.58;2.72;;;4.70;56.70;;;;;;7488765;23;20005;-70
2023/12/03 08:04:29;;;;;;;4.70;2.17;;;4.70;56.90;;;;;;7514030;23;20010;-71
2023/12/03 08:07:30;;;;;;;4.10;2.60;;;4.70;56.80;;;;;;7488244;23;20035;-71
2023/12/03 08:10:31;;;;;;;4.82;2.42;;;4.70;56.70;;;;;;7514703;23;20453;-72
2023/12/03 08:13:32;;;;;;;4.20;1.90;;;4.70;56.70;;;;;;7514715;23;21421;-71
2023/12/03 08:16:33;;;;;;;2.65;1.98;;;4.60;56.60;;;;;;7514898;23;20010;-72
2023/12/03 08:19:34;;;;;;;8.45;2.50;;;4.60;56.70;;;;;;7514985;23;20065;-72
2023/12/03 08:22:35;;;;;;;4.22;2.58;;;4.60;56.90;;;;;;7515215;23;19998;-72
2023/12/03 08:25:36;;;;;;;4.90;2.85;;;4.70;57.00;;;;;;7515096;23;20446;-72
2023/12/03 08:28:37;;;;;;;8.68;3.95;;;4.70;57.10;;;;;;7515010;23;20118;-70
2023/12/03 08:31:38;;;;;;;4.63;3.00;;;4.80;57.20;;;;;;7489747;23;20002;-70
2023/12/03 08:34:39;;;;;;;8.98;4.00;;;4.60;57.20;;;;;;7514718;23;20015;-71
2023/12/03 08:37:40;;;;;;;4.20;2.88;;;4.40;57.20;;;;;;7488168;23;20386;-72
2023/12/03 08:40:41;;;;;;;7.32;3.25;;;4.60;57.50;;;;;;7488743;23;20073;-72
2023/12/03 08:43:42;;;;;;;7.97;4.15;;;4.50;57.60;;;;;;7488516;23;20027;-72
2023/12/03 08:46:43;;;;;;;7.72;2.95;;;4.60;57.70;;;;;;7488624;23;20013;-72
2023/12/03 08:49:44;;;;;;;4.22;3.08;;;4.60;57.80;;;;;;7514201;23;19994;-71
2023/12/03 08:52:44;;;;;;;6.72;3.70;;;4.60;57.90;;;;;;7489082;23;20465;-71
2023/12/03 08:55:48;;;;;;;4.72;2.67;;;4.70;58.00;;;;;;7489287;23;20003;-72
2023/12/03 08:58:51;;;;;;;5.82;3.00;;;4.70;57.90;;;;;;7514795;23;20453;-71
2023/12/03 09:01:51;;;;;;;4.97;2.65;;;4.80;58.00;;;;;;7515272;23;20094;-71
2023/12/03 09:04:54;;;;;;;6.80;4.28;;;4.80;58.00;;;;;;7490451;23;20014;-71
2023/12/03 09:07:56;;;;;;;11.80;4.50;;;4.90;58.00;;;;;;7490807;23;20040;-71
2023/12/03 09:10:57;;;;;;;5.53;2.78;;;5.00;58.00;;;;;;7489540;23;20050;-72
2023/12/03 09:13:58;;;;;;;6.47;3.20;;;5.10;57.90;;;;;;7465674;23;20011;-71
2023/12/03 09:16:59;;;;;;;11.32;4.30;;;5.30;57.90;;;;;;7489491;23;20598;-72
2023/12/03 09:20:00;;;;;;;10.18;3.78;;;5.40;57.90;;;;;;7490760;23;20022;-71
2023/12/03 09:23:04;;;;;;;7.03;3.75;;;5.50;57.90;;;;;;7516960;23;19995;-72
2023/12/03 09:26:07;;;;;;;10.35;4.88;;;5.60;57.80;;;;;;7491801;23;20286;-73
2023/12/03 09:29:10;;;;;;;9.38;4.32;;;5.70;57.70;;;;;;7516473;23;19999;-72
2023/12/03 09:32:12;;;;;;;6.40;3.17;;;5.80;57.70;;;;;;7514236;23;20011;-71
2023/12/03 09:35:13;;;;;;;8.68;4.40;;;6.00;57.50;;;;;;7515262;23;19999;-72
2023/12/03 09:38:14;;;;;;;7.10;3.92;;;6.10;57.40;;;;;;7489710;23;20704;-73
2023/12/03 09:41:20;;;;;;;14.68;7.70;;;6.20;56.90;;;;;;7516927;23;20002;-70
2023/12/03 09:44:33;;;;;;;10.00;5.60;;;6.40;56.50;;;;;;7517112;23;20458;-71
2023/12/03 09:47:35;;;;;;;17.90;5.80;;;6.40;56.20;;;;;;7517692;23;20101;-71
2023/12/03 09:50:37;;;;;;;7.65;4.25;;;6.50;55.90;;;;;;7490433;23;20009;-71
2023/12/03 09:53:45;;;;;;;14.60;5.78;;;6.60;55.40;;;;;;7515436;23;20026;-70
2023/12/03 09:56:47;;;;;;;9.23;4.20;;;6.60;55.10;;;;;;7489337;23;20453;-70
2023/12/03 09:59:50;;;;;;;11.77;6.25;;;6.50;55.00;;;;;;7514486;23;20003;-72
2023/12/03 10:02:53;;;;;;;11.68;4.97;;;6.50;55.30;;;;;;7513561;23;20015;-71
2023/12/03 10:05:54;;;;;;;9.38;4.45;;;6.50;55.40;;;;;;7513540;23;20010;-72
2023/12/03 10:08:57;;;;;;;5.88;3.65;;;6.60;55.30;;;;;;7487839;23;20003;-73
2023/12/03 10:12:04;;;;;;;7.30;3.92;;;6.60;55.10;;;;;;7488698;23;20003;-72
2023/12/03 10:15:06;;;;;;;7.97;4.45;;;6.70;54.90;;;;;;7489633;23;20006;-72
2023/12/03 10:18:07;;;;;;;7.45;3.40;;;6.70;54.60;;;;;;7513975;23;20006;-72
2023/12/03 10:21:08;;;;;;;10.10;4.57;;;6.70;54.80;;;;;;7489194;23;20018;-72
2023/12/03 10:24:09;;;;;;;10.07;4.65;;;6.90;55.20;;;;;;7513779;23;20009;-72
2023/12/03 10:27:12;;;;;;;9.85;4.15;;;7.10;55.40;;;;;;7488632;23;20430;-72
2023/12/03 10:30:13;;;;;;;7.35;3.40;;;7.50;55.00;;;;;;7513229;23;20097;-71
2023/12/03 10:33:15;;;;;;;7.20;3.65;;;7.80;54.30;;;;;;7487157;23;20014;-72
2023/12/03 10:36:17;;;;;;;5.35;3.88;;;8.20;53.90;;;;;;7487597;23;20087;-72
2023/12/03 10:39:18;;;;;;;7.72;4.68;;;8.60;52.90;;;;;;7512058;23;20018;-72
2023/12/03 10:42:19;;;;;;;8.77;4.32;;;8.90;51.40;;;;;;7492093;23;20033;-74
2023/12/03 10:45:20;;;;;;;5.72;3.65;;;9.10;51.10;;;;;;7515100;23;20094;-72
2023/12/03 10:48:23;;;;;;;12.63;5.68;;;9.50;50.80;;;;;;7510433;23;19999;-71
2023/12/03 10:51:27;;;;;;;8.77;4.28;;;10.20;50.20;;;;;;7512769;23;20133;-73
2023/12/03 10:54:29;;;;;;;12.10;5.38;;;10.60;48.10;;;;;;7513397;23;20014;-72
2023/12/03 10:57:31;;;;;;;8.75;4.38;;;10.60;47.40;;;;;;7487795;23;20372;-72
2023/12/03 11:00:45;;;;;;;11.75;6.10;;;10.50;48.00;;;;;;7487272;23;20003;-72
2023/12/03 11:03:55;;;;;;;10.65;4.78;;;10.40;48.50;;;;;;7515704;23;20013;-71
2023/12/03 11:06:58;;;;;;;9.80;4.55;;;10.40;48.60;;;;;;7514185;23;20011;-71
2023/12/03 11:10:01;;;;;;;6.38;3.40;;;10.90;47.80;;;;;;7490866;23;20006;-72
2023/12/03 11:13:04;;;;;;;11.40;4.00;;;11.20;45.80;;;;;;7490611;23;19990;-73
2023/12/03 11:16:07;;;;;;;11.10;4.72;;;11.10;44.70;;;;;;7515882;23;20002;-72
2023/12/03 11:19:17;;;;;;;17.30;5.60;;;10.90;45.80;;;;;;7515843;23;20010;-72
2023/12/03 11:23:08;;;;;;;9.25;5.22;;;10.90;46.60;;;;;;7489274;23;20030;-72
2023/12/03 11:26:15;;;;;;;;;;;10.90;46.20;;;;;;7347844;24;20362;-73
2023/12/03 11:29:16;;;;;;;7.28;3.97;;;10.90;44.70;;;;;;7347166;24;20267;-72
2023/12/03 11:32:19;;;;;;;9.88;3.88;;;10.60;44.80;;;;;;7347874;24;20001;-72
2023/12/03 11:35:20;;;;;;;8.23;4.10;;;10.60;45.30;;;;;;7323344;24;20030;-72
2023/12/03 11:38:21;;;;;;;7.13;4.10;;;10.50;45.50;;;;;;7345828;24;20391;-72
2023/12/03 11:41:22;;;;;;;5.25;2.90;;;10.40;45.70;;;;;;7346624;24;20523;-71
2023/12/03 11:44:26;;;;;;;5.10;3.15;;;10.50;45.20;;;;;;7370108;24;20381;-72
2023/12/03 11:47:28;;;;;;;12.48;3.03;;;10.30;44.90;;;;;;7370906;24;20474;-73
2023/12/03 11:50:30;;;;;;;8.27;3.05;;;10.10;44.60;;;;;;7348248;24;20004;-73
2023/12/03 11:53:38;;;;;;;4.88;3.33;;;9.90;44.80;;;;;;7348205;24;20066;-71
2023/12/03 11:56:39;;;;;;;5.10;3.22;;;9.80;45.70;;;;;;7372109;24;20159;-72
2023/12/03 11:59:43;;;;;;;6.28;3.15;;;9.80;45.60;;;;;;7349773;24;20483;-71
2023/12/03 12:02:44;;;;;;;5.60;2.78;;;9.70;44.60;;;;;;7484111;23;20442;-71
2023/12/03 12:05:47;;;;;;;2.28;1.95;;;9.60;44.60;;;;;;7516005;23;20117;-70
2023/12/03 12:08:48;;;;;;;5.38;2.20;;;9.60;44.60;;;;;;7516769;23;20418;-71
2023/12/03 12:11:51;;;;;;;5.13;2.75;;;9.60;44.80;;;;;;7491928;23;20022;-76
2023/12/03 12:14:52;;;;;;;7.63;2.90;;;9.70;45.00;;;;;;7518518;23;20328;-70
2023/12/03 12:17:54;;;;;;;2.40;1.23;;;9.90;45.30;;;;;;7518540;23;20030;-70
2023/12/03 12:21:11;;;;;;;2.88;2.00;;;10.00;44.20;;;;;;7518400;23;20114;-70
2023/12/03 12:24:13;;;;;;;5.57;2.22;;;9.90;43.90;;;;;;7490116;23;20414;-71
2023/12/03 12:27:14;;;;;;;4.93;2.72;;;9.90;43.30;;;;;;7516444;23;19994;-71
2023/12/03 12:30:17;;;;;;;5.75;2.75;;;9.80;43.50;;;;;;7465644;23;20007;-70
2023/12/03 12:33:18;;;;;;;4.00;2.20;;;9.70;43.70;;;;;;7492208;23;20003;-69
2023/12/03 12:36:19;;;;;;;2.28;1.70;;;9.70;43.90;;;;;;7519269;23;20393;-72
2023/12/03 12:39:27;;;;;;;6.80;2.83;;;9.60;43.40;;;;;;7490134;23;20070;-71
2023/12/03 12:42:28;;;;;;;4.88;2.35;;;9.50;43.30;;;;;;7491490;23;20011;-72
2023/12/03 12:45:30;;;;;;;6.32;2.45;;;9.40;44.10;;;;;;7519392;23;20026;-72
2023/12/03 12:48:35;;;;;;;4.63;2.50;;;9.30;44.20;;;;;;7493167;23;20406;-72
2023/12/03 12:51:36;;;;;;;6.65;3.10;;;9.20;44.20;;;;;;7492023;23;20003;-73
2023/12/03 12:54:53;;;;;;;6.78;2.30;;;9.10;44.90;;;;;;7467118;23;20011;-71
2023/12/03 12:57:54;;;;;;;6.45;2.92;;;9.10;45.00;;;;;;7516366;23;20011;-72
2023/12/03 13:00:55;;;;;;;6.30;2.75;;;9.10;45.10;;;;;;7489343;23;20030;-73
2023/12/03 13:03:58;;;;;;;5.28;2.80;;;9.00;45.10;;;;;;7515246;23;20112;-72
2023/12/03 13:07:01;;;;;;;8.35;3.38;;;9.00;44.20;;;;;;7516262;23;20019;-71
2023/12/03 13:10:03;;;;;;;6.18;2.38;;;8.80;44.40;;;;;;7490738;23;19995;-71
2023/12/03 13:13:04;;;;;;;8.25;2.55;;;8.80;45.10;;;;;;7489977;23;20014;-72
2023/12/03 13:16:06;;;;;;;6.95;2.78;;;8.80;45.30;;;;;;7490350;23;20033;-71
2023/12/03 13:19:08;;;;;;;4.20;1.75;;;8.80;45.00;;;;;;7516084;23;20007;-72
2023/12/03 13:22:09;;;;;;;7.63;2.72;;;8.80;44.60;;;;;;7443012;23;20120;-71
2023/12/03 13:25:09;;;;;;;3.55;1.95;;;8.70;44.50;;;;;;7516015;23;20441;-72
2023/12/03 13:28:10;;;;;;;9.85;2.97;;;8.70;45.00;;;;;;7489568;23;20272;-71
2023/12/03 13:31:12;;;;;;;3.75;2.17;;;8.70;45.40;;;;;;7489505;23;20457;-70
2023/12/03 13:34:13;;;;;;;3.50;2.45;;;8.70;45.40;;;;;;7489680;23;20517;-72
2023/12/03 13:37:13;;;;;;;2.10;1.58;;;8.70;44.10;;;;;;7489161;23;20049;-70
2023/12/03 13:40:14;;;;;;;3.20;2.00;;;8.50;43.70;;;;;;7515982;23;20003;-73
2023/12/03 13:43:15;;;;;;;6.05;3.08;;;8.40;44.30;;;;;;7490954;23;20070;-71
2023/12/03 13:46:17;;;;;;;3.67;2.25;;;8.30;45.00;;;;;;7515979;23;20099;-72
2023/12/03 13:49:18;;;;;;;7.57;2.75;;;8.20;45.50;;;;;;7515725;23;20019;-71
2023/12/03 13:52:20;;;;;;;8.55;3.33;;;8.20;45.90;;;;;;7514838;23;20764;-70
2023/12/03 13:55:21;;;;;;;7.15;2.10;;;8.30;46.00;;;;;;7490196;23;20007;-70
2023/12/03 13:58:23;;;;;;;5.38;2.67;;;8.30;46.10;;;;;;7515303;23;20003;-72
2023/12/03 14:01:24;;;;;;;6.80;3.22;;;8.40;46.00;;;;;;7514871;23;20014;-71
2023/12/03 14:04:25;;;;;;;7.15;2.83;;;8.30;45.90;;;;;;7514514;23;19998;-72
2023/12/03 14:07:27;;;;;;;7.70;2.55;;;8.30;46.20;;;;;;7488931;23;20003;-72
2023/12/03 14:10:31;;;;;;;4.78;2.63;;;8.30;46.30;;;;;;7466440;23;20219;-72
2023/12/03 14:13:34;;;;;;;7.00;3.70;;;8.30;46.20;;;;;;7445834;23;20041;-72
2023/12/03 14:16:36;;;;;;;4.68;2.92;;;8.30;46.50;;;;;;7490855;23;20177;-73
2023/12/03 14:19:40;;;;;;;4.72;2.45;;;8.20;46.60;;;;;;7514667;23;20029;-71
2023/12/03 14:22:41;;;;;;;9.82;2.75;;;8.30;46.50;;;;;;7490057;23;20030;-71
2023/12/03 14:25:42;;;;;;;15.45;4.45;;;8.20;46.60;;;;;;7489351;23;20525;-71
2023/12/03 14:28:44;;;;;;;7.80;3.10;;;8.20;46.70;;;;;;7465681;23;20193;-71
2023/12/03 14:31:45;;;;;;;4.60;2.80;;;8.20;46.40;;;;;;7489123;23;20030;-71
2023/12/03 14:34:46;;;;;;;7.47;3.22;;;8.20;46.60;;;;;;7464899;23;20169;-72
2023/12/03 14:37:47;;;;;;;8.32;3.97;;;8.20;46.70;;;;;;7488639;23;20094;-72
2023/12/03 14:40:48;;;;;;;7.20;2.85;;;8.20;46.80;;;;;;7463141;23;20084;-72
2023/12/03 14:43:49;;;;;;;5.40;2.97;;;8.20;46.70;;;;;;7489087;23;20390;-72
2023/12/03 14:46:52;;;;;;;5.70;2.20;;;8.20;46.80;;;;;;7514867;23;20038;-71
2023/12/03 14:49:53;;;;;;;5.45;2.28;;;8.10;46.60;;;;;;7514738;23;20074;-72
2023/12/03 14:52:54;;;;;;;8.43;3.15;;;8.10;46.80;;;;;;7514540;23;20007;-72
2023/12/03 14:55:55;;;;;;;4.20;2.75;;;8.10;47.00;;;;;;7464791;23;20007;-72
2023/12/03 14:58:57;;;;;;;6.88;3.80;;;8.10;47.10;;;;;;7513526;23;20090;-72
2023/12/03 15:01:59;;;;;;;5.22;3.20;;;8.10;47.30;;;;;;7513992;23;20065;-71
2023/12/03 15:05:01;;;;;;;6.28;3.63;;;8.10;47.40;;;;;;7488507;23;20422;-72
2023/12/03 15:08:02;;;;;;;10.07;3.30;;;8.10;47.50;;;;;;7464682;23;20355;-73
2023/12/03 15:11:03;;;;;;;4.80;2.97;;;8.10;47.50;;;;;;7464042;23;20071;-72
2023/12/03 15:14:04;;;;;;;11.07;3.40;;;8.00;47.40;;;;;;7512562;23;20097;-70
2023/12/03 15:17:05;;;;;;;7.22;3.30;;;8.00;47.50;;;;;;7486720;23;19999;-72
2023/12/03 15:20:07;;;;;;;5.70;3.38;;;8.00;47.60;;;;;;7463211;23;20058;-72
2023/12/03 15:23:08;;;;;;;5.53;2.67;;;7.90;47.70;;;;;;7463601;23;20438;-71
2023/12/03 15:26:11;;;;;;;4.15;2.30;;;7.90;47.80;;;;;;7487096;23;20014;-70
2023/12/03 15:29:12;;;;;;;7.78;3.28;;;7.90;47.90;;;;;;7488102;23;20030;-70
2023/12/03 15:32:13;;;;;;;6.05;3.42;;;7.80;48.00;;;;;;7515495;23;20036;-71
2023/12/03 15:35:15;;;;;;;3.58;2.80;;;7.70;48.10;;;;;;7489140;23;20034;-71
2023/12/03 15:38:16;;;;;;;6.93;3.47;;;7.70;48.30;;;;;;7515592;23;20582;-71
2023/12/03 15:41:18;;;;;;;10.32;4.15;;;7.70;48.40;;;;;;7515689;23;19999;-70
2023/12/03 15:44:19;;;;;;;7.85;4.65;;;7.70;48.50;;;;;;7517084;23;20007;-72
2023/12/03 15:47:20;;;;;;;10.52;4.15;;;7.70;48.50;;;;;;7465949;23;20042;-71
2023/12/03 15:50:22;;;;;;;6.82;3.70;;;7.60;48.70;;;;;;7515955;23;20319;-71
2023/12/03 15:53:23;;;;;;;9.68;4.47;;;7.60;48.70;;;;;;7489322;23;20066;-71
2023/12/03 15:56:24;;;;;;;8.48;4.22;;;7.60;48.80;;;;;;7490333;23;20106;-70